• 1
  • 2
  • 1

 

 

 
NEU! ab. 1.4.
Nortel Info 128,740 MHz

WebCam

  
Kamera Halle
Kamera Vorfeld
Wetter EDDS

METAR

EDDS 161950Z 28003KT CAVOK 04/M02 Q1027 NOSIG =
EDDS 161700Z 1618/1718 VRB03KT CAVOK


TAF

EDDS 161700Z 1618/1718 VRB03KT CAVOK =


SR/SS

06:27 / 16:43 UTC
(EDSO 16-02-2019)